Time;durP1;ratioP1;P1;durP2;ratioP2;P2;SDS_P1;SDS_P2;PMS_P1;PMS_P2;Temp;Humidity;BMP_temperature;BMP_pressure;BME280_temperature;BME280_humidity;BME280_pressure;Samples;Min_cycle;Max_cycle;Signal;HPM_P1;HPM_P2
2022/08/22 06:04:29;;;;;;;18.02;12.32;;;;;;;25.07;100.00;100412.94;5955896;23;19921;-76
2022/08/22 06:07:41;;;;;;;18.77;11.80;;;;;;;24.82;100.00;100423.94;4918399;29;20064;-75
2022/08/22 06:10:41;;;;;;;16.33;12.13;;;;;;;25.00;100.00;100419.78;4918209;29;20103;-75
2022/08/22 06:13:40;;;;;;;15.90;11.45;;;;;;;24.66;100.00;100421.63;4918930;29;20032;-74
2022/08/22 06:16:42;;;;;;;18.73;13.63;;;;;;;24.77;100.00;100407.38;4925175;29;20549;-74
2022/08/22 06:19:31;;;;;;;18.17;12.10;;;;;;;24.50;100.00;100406.88;4931847;29;20075;-76
2022/08/22 06:22:27;;;;;;;15.80;11.27;;;;;;;24.46;100.00;100416.97;4921208;29;20043;-73
2022/08/22 06:25:20;;;;;;;16.17;12.75;;;;;;;24.90;100.00;100425.03;4933170;29;20149;-74
2022/08/22 06:28:12;;;;;;;16.73;12.10;;;;;;;24.78;100.00;100427.81;4921775;29;20024;-76
2022/08/22 06:31:02;;;;;;;16.65;13.52;;;;;;;25.03;100.00;100431.09;4934517;29;20131;-78
2022/08/22 06:34:04;;;;;;;19.10;12.82;;;;;;;25.18;100.00;100424.47;4934620;29;20061;-73
2022/08/22 06:36:53;;;;;;;16.95;12.48;;;;;;;24.81;100.00;100420.41;4930527;29;20024;-74
2022/08/22 06:39:43;;;;;;;18.95;13.13;;;;;;;24.83;100.00;100439.06;4921579;29;20120;-76
2022/08/22 06:42:31;;;;;;;16.60;12.50;;;;;;;25.31;100.00;100435.09;4934943;29;20386;-72
2022/08/22 06:45:20;;;;;;;17.58;11.88;;;;;;;25.62;100.00;100418.97;4931700;29;20864;-73
2022/08/22 06:48:06;;;;;;;17.85;12.02;;;;;;;25.00;100.00;100423.28;4934306;29;20520;-74
2022/08/22 06:50:57;;;;;;;15.32;11.88;;;;;;;25.50;100.00;100422.69;4934313;29;20476;-73
2022/08/22 06:53:47;;;;;;;18.50;13.02;;;;;;;26.05;100.00;100419.78;4935061;29;20070;-73
2022/08/22 06:56:45;;;;;;;17.50;10.82;;;;;;;25.80;100.00;100422.78;4933719;29;20032;-72
2022/08/22 06:59:36;;;;;;;12.73;10.18;;;;;;;26.46;100.00;100422.38;4934866;29;20190;-72
2022/08/22 07:02:37;;;;;;;15.68;11.35;;;;;;;26.49;100.00;100426.66;4935408;29;20480;-72
2022/08/22 07:05:28;;;;;;;16.15;11.27;;;;;;;26.14;100.00;100426.16;4933225;29;20048;-73
2022/08/22 07:08:19;;;;;;;14.93;11.50;;;;;;;25.99;100.00;100430.16;4933913;29;20027;-74
2022/08/22 07:11:13;;;;;;;16.17;12.40;;;;;;;26.28;100.00;100432.03;4934742;29;20027;-73
2022/08/22 07:14:05;;;;;;;13.98;11.38;;;;;;;26.20;100.00;100439.06;4933819;29;20035;-73
2022/08/22 07:16:57;;;;;;;16.40;11.77;;;;;;;26.35;100.00;100430.53;4933055;29;20501;-73
2022/08/22 07:20:16;;;;;;;15.88;11.60;;;;;;;25.48;100.00;100443.41;4933622;29;20504;-72
2022/08/22 07:23:09;;;;;;;22.25;18.50;;;;;;;25.87;100.00;100440.09;4934414;29;20036;-73
2022/08/22 07:26:18;;;;;;;12.38;10.07;;;;;;;26.23;100.00;100441.47;4918680;29;20024;-72
2022/08/22 07:29:11;;;;;;;13.93;10.98;;;;;;;26.32;100.00;100438.03;4933668;29;20027;-73
2022/08/22 07:32:24;;;;;;;15.32;11.35;;;;;;;26.09;100.00;100439.13;4935464;29;20476;-73
2022/08/22 07:35:14;;;;;;;14.60;10.48;;;;;;;26.10;100.00;100440.84;4936425;29;20032;-73
2022/08/22 07:38:09;;;;;;;14.52;11.32;;;;;;;26.06;100.00;100439.41;4937213;29;20031;-73
2022/08/22 07:41:10;;;;;;;12.80;10.82;;;;;;;26.23;100.00;100438.78;4938088;29;20095;-74
2022/08/22 07:44:17;;;;;;;12.98;10.70;;;;;;;26.49;100.00;100440.06;4937435;29;20027;-73
2022/08/22 07:47:12;;;;;;;14.90;11.57;;;;;;;27.02;100.00;100442.44;4935520;29;20027;-72
2022/08/22 07:50:03;;;;;;;13.15;10.40;;;;;;;26.78;100.00;100444.63;4937327;29;20038;-74
2022/08/22 07:52:51;;;;;;;12.32;9.93;;;;;;;27.05;100.00;100436.78;4923652;29;20036;-73
2022/08/22 07:55:38;;;;;;;13.02;9.35;;;;;;;27.25;100.00;100440.41;4933733;29;20035;-73
2022/08/22 07:58:27;;;;;;;12.88;10.15;;;;;;;26.95;100.00;100433.22;4937709;29;20047;-71
2022/08/22 08:01:19;;;;;;;13.77;9.90;;;;;;;27.54;100.00;100430.50;4936487;29;20031;-72
2022/08/22 08:04:11;;;;;;;13.60;9.82;;;;;;;27.03;100.00;100430.69;4937175;29;20314;-71
2022/08/22 08:06:59;;;;;;;13.40;9.45;;;;;;;26.72;100.00;100434.41;4934913;29;20032;-71
2022/08/22 08:10:09;;;;;;;12.68;9.43;;;;;;;27.89;100.00;100421.88;4937392;29;20039;-71
2022/08/22 08:13:05;;;;;;;13.70;10.30;;;;;;;27.65;100.00;100426.81;4936311;29;20031;-72
2022/08/22 08:15:51;;;;;;;15.60;10.52;;;;;;;26.96;100.00;100432.22;4935064;29;20071;-71
2022/08/22 08:18:38;;;;;;;12.75;10.35;;;;;;;27.48;100.00;100432.91;4936497;29;20126;-71
2022/08/22 08:21:24;;;;;;;51.95;40.50;;;;;;;27.81;100.00;100436.03;4936751;29;20361;-72
2022/08/22 08:24:15;;;;;;;13.98;10.63;;;;;;;27.78;100.00;100435.47;4935726;29;20039;-70
2022/08/22 08:30:19;;;;;;;13.40;9.77;;;;;;;26.96;100.00;100428.66;4937004;29;20020;-70
2022/08/22 08:33:07;;;;;;;12.73;8.93;;;;;;;27.25;100.00;100435.03;4936717;29;20039;-72
2022/08/22 08:36:04;;;;;;;15.52;10.15;;;;;;;27.93;100.00;100421.47;4935414;29;20460;-73
2022/08/22 08:39:15;;;;;;;11.85;9.88;;;;;;;28.08;100.00;100432.63;4935391;29;20499;-71
2022/08/22 08:42:13;;;;;;;14.55;9.98;;;;;;;27.86;100.00;100419.47;4936228;29;20073;-71
2022/08/22 08:45:43;;;;;;;10.98;9.85;;;;;;;28.26;100.00;100426.34;4934652;29;20118;-71
2022/08/22 08:49:03;;;;;;;10.88;9.77;;;;;;;27.64;100.00;100420.56;4860007;29;20025;-72
2022/08/22 08:52:03;;;;;;;12.13;9.38;;;;;;;28.92;100.00;100419.84;4846903;29;20041;-71
2022/08/22 08:54:54;;;;;;;13.30;11.00;;;;;;;28.20;100.00;100424.22;4936122;29;20047;-71
2022/08/22 08:57:57;;;;;;;13.13;9.88;;;;;;;28.07;100.00;100417.44;4935685;29;20043;-70
2022/08/22 09:01:11;;;;;;;11.07;9.52;;;;;;;28.43;100.00;100420.22;4935442;29;20023;-70
2022/08/22 09:04:19;;;;;;;14.88;9.98;;;;;;;28.44;100.00;100419.22;4921848;29;20103;-71
2022/08/22 09:07:26;;;;;;;12.00;9.35;;;;;;;28.18;100.00;100415.44;4933031;29;20102;-71
2022/08/22 09:10:28;;;;;;;13.20;9.52;;;;;;;27.81;100.00;100417.19;4935707;29;20027;-71
2022/08/22 09:13:40;;;;;;;13.82;9.38;;;;;;;28.18;100.00;100423.53;4920923;29;20124;-72
2022/08/22 09:16:48;;;;;;;12.40;9.23;;;;;;;28.06;100.00;100419.31;4934745;29;20091;-71
2022/08/22 09:19:34;;;;;;;11.55;9.48;;;;;;;29.12;100.00;100421.47;4935409;29;20023;-71
2022/08/22 09:22:47;;;;;;;10.65;9.02;;;;;;;29.34;100.00;100429.16;4935366;29;20046;-71
2022/08/22 09:25:33;;;;;;;11.68;9.30;;;;;;;29.77;100.00;100428.41;4932356;29;20468;-71
2022/08/22 09:28:25;;;;;;;12.07;9.20;;;;;;;29.66;100.00;100434.03;4921953;29;20048;-71
2022/08/22 09:31:16;;;;;;;12.13;9.70;;;;;;;29.74;100.00;100434.13;4934555;29;20353;-72
2022/08/22 09:34:20;;;;;;;13.07;9.57;;;;;;;29.80;100.00;100419.97;4934979;29;20119;-71
2022/08/22 09:37:27;;;;;;;13.57;8.77;;;;;;;29.80;100.00;100418.13;4933890;29;20098;-71
2022/08/22 09:40:36;;;;;;;14.00;9.73;;;;;;;29.25;100.00;100418.41;4934917;29;20042;-70
2022/08/22 09:43:42;;;;;;;12.52;9.50;;;;;;;29.73;100.00;100427.03;4935027;29;20472;-70
2022/08/22 09:46:42;;;;;;;10.00;9.00;;;;;;;28.57;100.00;100414.34;4933113;29;20379;-70
2022/08/22 09:49:59;;;;;;;9.55;8.20;;;;;;;29.17;100.00;100423.72;4932928;29;20042;-71
2022/08/22 09:52:50;;;;;;;9.45;8.05;;;;;;;28.54;100.00;100413.81;4935137;29;20032;-71
2022/08/22 09:55:45;;;;;;;10.00;7.78;;;;;;;28.68;100.00;100419.56;4933122;29;20457;-72
2022/08/22 09:59:06;;;;;;;9.57;7.85;;;;;;;29.64;100.00;100414.44;4935494;29;20043;-71
2022/08/22 10:02:26;;;;;;;14.20;8.75;;;;;;;30.54;100.00;100418.50;4934111;29;20087;-71
2022/08/22 10:05:25;;;;;;;11.00;9.00;;;;;;;30.00;100.00;100416.09;4918897;29;20114;-71
2022/08/22 10:08:56;;;;;;;13.82;8.25;;;;;;;30.89;100.00;100412.94;4934552;29;20071;-72
2022/08/22 10:11:48;;;;;;;12.63;8.73;;;;;;;30.19;100.00;100405.97;4934722;29;20086;-71
2022/08/22 10:15:08;;;;;;;12.48;8.35;;;;;;;30.05;100.00;100405.69;4920513;29;20019;-71
2022/08/22 10:18:02;;;;;;;9.77;8.27;;;;;;;29.89;100.00;100406.38;4931767;29;20035;-75
2022/08/22 10:21:06;;;;;;;9.68;7.65;;;;;;;29.65;100.00;100405.34;4934581;29;20032;-71
2022/08/22 10:24:22;;;;;;;10.07;7.97;;;;;;;30.13;100.00;100411.97;4920398;29;20027;-70
2022/08/22 10:27:16;;;;;;;13.90;8.40;;;;;;;29.95;100.00;100397.66;4919292;29;20027;-72
2022/08/22 10:30:10;;;;;;;10.75;7.63;;;;;;;30.10;100.00;100406.88;4931863;29;20027;-71
2022/08/22 10:32:56;;;;;;;9.00;8.10;;;;;;;30.19;100.00;100403.28;4922625;29;20023;-71
2022/08/22 10:36:02;;;;;;;10.57;8.30;;;;;;;30.13;100.00;100405.69;4933225;29;20079;-71
2022/08/22 10:38:53;;;;;;;11.57;8.18;;;;;;;30.43;100.00;100416.94;4934330;29;20035;-70
2022/08/22 10:42:18;;;;;;;12.35;8.50;;;;;;;30.06;100.00;100401.97;4935002;29;20035;-72
2022/08/22 10:45:18;;;;;;;10.45;8.07;;;;;;;30.06;100.00;100404.66;4933282;29;20139;-72
2022/08/22 10:48:04;;;;;;;11.52;7.78;;;;;;;30.09;100.00;100396.25;4934053;29;20468;-71
2022/08/22 10:50:57;;;;;;;10.30;8.18;;;;;;;30.19;100.00;100403.28;4933911;29;20115;-71
2022/08/22 10:54:02;;;;;;;9.70;8.02;;;;;;;29.96;100.00;100393.09;4933451;29;20020;-71
2022/08/22 10:57:04;;;;;;;9.25;7.70;;;;;;;30.27;100.00;100392.50;4933178;29;20032;-71
2022/08/22 11:00:13;;;;;;;13.07;8.23;;;;;;;30.51;100.00;100387.22;4934686;29;20456;-72
2022/08/22 11:03:21;;;;;;;9.35;7.43;;;;;;;30.39;100.00;100385.81;4935381;29;20456;-72
2022/08/22 11:06:25;;;;;;;9.05;7.78;;;;;;;30.44;100.00;100375.38;4918912;29;20122;-71
2022/08/22 11:09:35;;;;;;;12.90;7.88;;;;;;;30.01;100.00;100372.69;4938034;29;20050;-71
2022/08/22 11:12:26;;;;;;;8.95;7.78;;;;;;;29.90;100.00;100369.41;4938462;29;20550;-71
2022/08/22 11:15:37;;;;;;;11.52;8.20;;;;;;;29.63;100.00;100356.03;4934852;29;20024;-72
2022/08/22 11:18:35;;;;;;;10.18;7.90;;;;;;;29.98;100.00;100361.38;4938201;29;20067;-72
2022/08/22 11:21:36;;;;;;;11.50;8.32;;;;;;;30.27;100.00;100354.66;4937155;29;20477;-72
2022/08/22 11:25:00;;;;;;;12.85;9.38;;;;;;;29.62;100.00;100340.84;4937489;29;20046;-71
2022/08/22 11:28:23;;;;;;;14.20;10.82;;;;;;;30.21;100.00;100335.50;4937379;29;20046;-71
2022/08/22 11:31:48;;;;;;;12.55;8.50;;;;;;;30.65;100.00;100334.34;4937562;29;20143;-71
2022/08/22 11:34:52;;;;;;;12.35;8.20;;;;;;;30.80;100.00;100330.91;4935748;29;20058;-73
2022/08/22 11:37:50;;;;;;;9.45;8.40;;;;;;;31.68;100.00;100326.59;4937917;29;20034;-71
2022/08/22 11:40:58;;;;;;;10.43;7.70;;;;;;;31.89;100.00;100327.81;4937668;29;20115;-71
2022/08/22 11:44:12;;;;;;;10.45;8.13;;;;;;;31.39;100.00;100330.69;4937229;29;20024;-71
2022/08/22 11:47:00;;;;;;;9.32;7.70;;;;;;;31.67;100.00;100322.22;4907888;29;20027;-71
2022/08/22 11:50:15;;;;;;;8.63;7.45;;;;;;;32.02;100.00;100321.88;4936859;29;20087;-70
2022/08/22 11:53:23;;;;;;;11.38;7.75;;;;;;;31.71;100.00;100321.72;4937279;29;20123;-71
2022/08/22 11:56:22;;;;;;;9.13;7.22;;;;;;;31.63;100.00;100316.31;4933769;29;20036;-71
2022/08/22 11:59:28;;;;;;;9.38;7.28;;;;;;;31.69;100.00;100310.19;4937655;29;20067;-72
2022/08/22 12:02:27;;;;;;;8.15;6.88;;;;;;;32.10;100.00;100311.81;4923481;29;20032;-71
2022/08/22 12:05:20;;;;;;;15.88;8.40;;;;;;;32.21;100.00;100305.19;4933804;29;20086;-73
2022/08/22 12:08:12;;;;;;;9.23;7.60;;;;;;;32.06;100.00;100307.78;4935755;29;20532;-72
2022/08/22 12:11:18;;;;;;;12.05;9.18;;;;;;;31.95;100.00;100304.59;4936224;29;20032;-73
2022/08/22 12:14:15;;;;;;;13.88;7.95;;;;;;;32.06;100.00;100310.47;4935091;29;20028;-72
2022/08/22 12:17:14;;;;;;;9.93;8.05;;;;;;;32.09;100.00;100306.56;4937970;29;20137;-71
2022/08/22 12:21:04;;;;;;;8.32;7.43;;;;;;;32.81;97.34;100292.75;4936235;29;20035;-72
2022/08/22 12:24:10;;;;;;;11.82;8.15;;;;;;;32.18;97.56;100295.53;4842723;29;20101;-72
2022/08/22 12:27:15;;;;;;;9.27;7.30;;;;;;;32.24;92.30;100286.72;4830556;29;20050;-72
2022/08/22 12:30:14;;;;;;;9.95;6.82;;;;;;;32.36;92.94;100289.91;4923096;29;20095;-71
2022/08/22 12:33:00;;;;;;;11.07;7.30;;;;;;;32.33;91.96;100285.69;4935760;29;20035;-71
2022/08/22 12:36:01;;;;;;;8.77;7.15;;;;;;;31.77;94.48;100288.53;4933389;29;20031;-71
2022/08/22 12:39:22;;;;;;;8.50;7.55;;;;;;;31.91;94.84;100292.41;4936875;29;20027;-71
2022/08/22 12:42:35;;;;;;;10.40;7.53;;;;;;;31.75;93.67;100289.69;4919402;29;20031;-71
2022/08/22 12:45:49;;;;;;;12.75;7.57;;;;;;;31.99;92.59;100285.09;4933989;29;21079;-71
2022/08/22 12:49:00;;;;;;;10.15;7.22;;;;;;;31.86;97.14;100284.78;4936247;29;20028;-71
2022/08/22 12:51:58;;;;;;;11.73;7.03;;;;;;;31.79;95.82;100278.38;4922780;29;20372;-71
2022/08/22 12:55:32;;;;;;;9.77;8.07;;;;;;;32.00;96.38;100283.22;4935342;29;20110;-72
2022/08/22 12:58:36;;;;;;;9.57;6.65;;;;;;;31.89;94.40;100281.72;4878197;29;20361;-71
2022/08/22 13:01:23;;;;;;;22.63;7.90;;;;;;;32.18;94.73;100273.00;4936356;29;20110;-70
2022/08/22 13:04:22;;;;;;;12.02;7.25;;;;;;;32.16;94.05;100264.19;4921174;29;20119;-71
2022/08/22 13:07:20;;;;;;;8.75;6.93;;;;;;;31.83;97.71;100262.63;4934075;29;20042;-71
2022/08/22 13:10:15;;;;;;;14.48;7.70;;;;;;;32.10;98.31;100265.75;4933606;29;20036;-71
2022/08/22 13:13:02;;;;;;;8.88;7.32;;;;;;;31.79;97.75;100261.28;4935874;29;20036;-71
2022/08/22 13:15:59;;;;;;;7.55;6.75;;;;;;;32.06;95.17;100261.69;4920747;29;20027;-71
2022/08/22 13:18:52;;;;;;;10.02;7.40;;;;;;;31.53;98.34;100260.63;4922066;29;20032;-72
2022/08/22 13:21:44;;;;;;;10.02;7.30;;;;;;;31.61;100.00;100269.56;4935370;29;20023;-72
2022/08/22 13:24:36;;;;;;;9.52;6.95;;;;;;;31.64;99.86;100266.50;4936204;29;20111;-71
2022/08/22 13:27:47;;;;;;;9.85;7.38;;;;;;;31.83;98.08;100273.44;4934941;29;20031;-71
2022/08/22 13:30:34;;;;;;;8.00;7.20;;;;;;;32.05;95.66;100272.69;4934852;29;20050;-71
2022/08/22 13:33:32;;;;;;;8.55;7.32;;;;;;;31.59;97.55;100268.91;4935067;29;20043;-71
2022/08/22 13:36:20;;;;;;;8.25;6.57;;;;;;;31.59;95.57;100266.19;4933746;29;20028;-70
2022/08/22 13:39:13;;;;;;;12.63;7.68;;;;;;;31.59;96.52;100268.03;4935925;29;20039;-72
2022/08/22 13:42:02;;;;;;;10.63;8.07;;;;;;;31.67;98.43;100271.59;4931820;29;20031;-71
2022/08/22 13:44:52;;;;;;;8.02;7.18;;;;;;;31.67;97.06;100270.75;4934414;29;20024;-72
2022/08/22 13:47:48;;;;;;;8.57;7.68;;;;;;;31.91;96.88;100268.00;4935020;29;20039;-71
2022/08/22 13:50:51;;;;;;;8.57;7.78;;;;;;;31.84;94.13;100267.00;4934687;29;20118;-72
2022/08/22 13:53:42;;;;;;;9.30;7.00;;;;;;;31.71;94.23;100270.25;4934183;29;20038;-71
2022/08/22 13:56:46;;;;;;;10.40;7.78;;;;;;;31.78;95.32;100270.41;4934624;29;20042;-71
2022/08/22 13:59:47;;;;;;;8.35;7.55;;;;;;;32.06;94.61;100277.13;4934677;29;20873;-71
2022/08/22 14:02:42;;;;;;;8.20;6.93;;;;;;;31.52;96.61;100261.59;4935161;29;20040;-71
2022/08/22 14:05:31;;;;;;;9.85;8.30;;;;;;;31.70;94.77;100263.09;4919530;29;20052;-72
2022/08/22 14:08:28;;;;;;;10.60;7.30;;;;;;;32.02;92.55;100273.06;4934916;29;20443;-71
2022/08/22 14:11:27;;;;;;;11.40;7.30;;;;;;;31.28;95.65;100276.88;4934942;29;20167;-71
2022/08/22 14:14:23;;;;;;;10.20;7.10;;;;;;;31.53;95.73;100275.00;4935504;29;20024;-71
2022/08/22 14:17:19;;;;;;;13.02;7.60;;;;;;;31.49;98.16;100273.63;4933241;29;20053;-71
2022/08/22 14:20:12;;;;;;;7.47;6.35;;;;;;;31.34;96.63;100270.78;4934456;29;20034;-71
2022/08/22 14:23:07;;;;;;;8.57;6.75;;;;;;;31.69;94.89;100276.84;4934395;29;20027;-71
2022/08/22 14:25:55;;;;;;;8.90;6.65;;;;;;;31.33;95.14;100268.22;4933450;29;20039;-71
2022/08/22 14:28:42;;;;;;;9.45;6.97;;;;;;;31.22;97.29;100268.56;4932877;29;20028;-70
2022/08/22 14:31:32;;;;;;;10.05;6.60;;;;;;;31.33;95.40;100276.34;4934918;29;20031;-71
2022/08/22 14:34:18;;;;;;;10.43;7.10;;;;;;;31.22;96.27;100271.28;4920479;29;20028;-70
2022/08/22 14:37:04;;;;;;;7.97;7.18;;;;;;;31.37;94.67;100275.00;4932571;29;20036;-73
2022/08/22 14:39:58;;;;;;;7.05;6.35;;;;;;;31.00;95.63;100274.63;4934005;29;20460;-72
2022/08/22 14:42:49;;;;;;;9.68;6.63;;;;;;;30.88;96.28;100276.81;4932047;29;20046;-72
2022/08/22 14:45:44;;;;;;;10.13;7.03;;;;;;;30.88;96.40;100275.94;4933233;29;20035;-72
2022/08/22 14:48:36;;;;;;;9.13;6.90;;;;;;;30.77;98.20;100281.69;4921215;29;20036;-75
2022/08/22 14:51:25;;;;;;;9.38;7.43;;;;;;;30.67;99.56;100272.84;4933727;29;20469;-71
2022/08/22 14:54:17;;;;;;;12.93;7.38;;;;;;;30.70;100.00;100275.25;4934229;29;20071;-71
2022/08/22 14:57:07;;;;;;;7.63;6.85;;;;;;;30.58;100.00;100271.97;4917501;29;20043;-71
2022/08/22 14:59:53;;;;;;;8.70;7.80;;;;;;;30.56;100.00;100274.00;4934535;29;20032;-71
2022/08/22 15:02:40;;;;;;;9.68;8.23;;;;;;;30.73;100.00;100270.34;4932089;29;20028;-70
2022/08/22 15:05:26;;;;;;;12.32;7.65;;;;;;;30.97;99.04;100267.69;4932912;29;20091;-72
2022/08/22 15:08:27;;;;;;;9.13;7.15;;;;;;;30.91;99.57;100271.03;4932928;29;20027;-68
2022/08/22 15:11:35;;;;;;;11.50;6.93;;;;;;;31.04;97.79;100275.97;4934514;29;20456;-70
2022/08/22 15:14:44;;;;;;;8.75;7.43;;;;;;;30.86;100.00;100272.59;4935657;29;20070;-71
2022/08/22 15:17:36;;;;;;;12.05;7.50;;;;;;;30.86;100.00;100268.00;4925482;29;20032;-72
2022/08/22 15:20:31;;;;;;;8.30;6.90;;;;;;;30.97;99.12;100272.25;4936017;29;20495;-71
2022/08/22 15:23:20;;;;;;;8.10;6.95;;;;;;;30.63;100.00;100272.34;4942363;29;20032;-71
2022/08/22 15:26:10;;;;;;;9.95;7.07;;;;;;;30.79;100.00;100266.13;4940887;29;20027;-72
2022/08/22 15:29:15;;;;;;;11.75;8.85;;;;;;;30.87;99.85;100264.28;4927128;29;20094;-72
2022/08/22 15:32:02;;;;;;;10.07;7.18;;;;;;;30.71;100.00;100269.69;4937805;29;20027;-73
2022/08/22 15:34:48;;;;;;;11.90;6.90;;;;;;;30.83;100.00;100262.09;4937398;29;20031;-72
2022/08/22 15:37:52;;;;;;;7.63;6.45;;;;;;;30.99;99.90;100267.53;4940106;29;20042;-72
2022/08/22 15:40:42;;;;;;;9.48;7.15;;;;;;;30.99;99.77;100267.53;4943846;29;20417;-73
2022/08/22 15:43:46;;;;;;;7.38;6.68;;;;;;;30.79;99.60;100263.44;4940486;29;20097;-72
2022/08/22 15:46:38;;;;;;;9.80;7.05;;;;;;;30.54;100.00;100256.25;4941935;29;20057;-72
2022/08/22 15:49:26;;;;;;;13.98;6.53;;;;;;;30.89;100.00;100256.00;4938980;29;20023;-72
2022/08/22 15:52:21;;;;;;;11.20;7.20;;;;;;;31.11;98.08;100253.47;4903668;29;20063;-72
2022/08/22 15:55:20;;;;;;;11.15;6.57;;;;;;;30.89;98.35;100258.69;4918661;29;20135;-73
2022/08/22 15:58:19;;;;;;;12.05;7.25;;;;;;;31.13;97.99;100264.13;4919933;29;20032;-73
2022/08/22 16:01:09;;;;;;;11.73;8.77;;;;;;;30.78;100.00;100259.88;4920921;29;20040;-73
2022/08/22 16:04:07;;;;;;;11.10;6.75;;;;;;;30.53;100.00;100258.09;4919438;29;20529;-72
2022/08/22 16:06:56;;;;;;;12.30;7.50;;;;;;;30.53;100.00;100258.09;4919381;29;20040;-73
2022/08/22 16:09:47;;;;;;;8.95;7.40;;;;;;;30.41;100.00;100255.84;4906602;29;20464;-74
2022/08/22 16:12:33;;;;;;;8.65;6.85;;;;;;;30.12;100.00;100266.19;4921820;29;20043;-72
2022/08/22 16:15:47;;;;;;;9.65;7.50;;;;;;;29.97;100.00;100268.63;4920572;29;20059;-73
2022/08/22 16:18:32;;;;;;;11.18;7.70;;;;;;;30.20;100.00;100264.41;4921176;29;20032;-72
2022/08/22 16:21:21;;;;;;;18.95;12.07;;;;;;;30.37;100.00;100258.03;4920696;29;20032;-73
2022/08/22 16:24:07;;;;;;;14.90;8.45;;;;;;;30.05;100.00;100262.44;4921383;29;20096;-71
2022/08/22 16:26:52;;;;;;;10.02;8.02;;;;;;;29.97;100.00;100265.94;4921374;29;20091;-72
2022/08/22 16:29:41;;;;;;;13.75;8.85;;;;;;;29.87;100.00;100270.63;4907366;29;20034;-72
2022/08/22 16:32:27;;;;;;;13.05;8.98;;;;;;;29.94;100.00;100268.13;4920474;29;20036;-72
2022/08/22 16:36:04;;;;;;;9.38;8.23;;;;;;;29.88;100.00;100272.31;4920938;29;20039;-72
2022/08/22 16:38:54;;;;;;;13.45;8.52;;;;;;;29.75;100.00;100274.59;4919964;29;20036;-73
2022/08/22 16:41:42;;;;;;;13.15;9.52;;;;;;;29.59;100.00;100282.59;4921147;29;20040;-73
2022/08/22 16:44:28;;;;;;;17.52;11.10;;;;;;;29.72;100.00;100276.75;4920911;29;20083;-73
2022/08/22 16:47:21;;;;;;;43.80;31.77;;;;;;;29.61;100.00;100277.03;4920919;29;20020;-73
2022/08/22 16:50:21;;;;;;;14.60;9.88;;;;;;;29.57;100.00;100279.19;4920294;29;20028;-72
2022/08/22 16:53:27;;;;;;;18.73;9.43;;;;;;;29.51;100.00;100284.34;4920692;29;20103;-73
2022/08/22 16:56:27;;;;;;;25.52;21.17;;;;;;;29.63;100.00;100289.38;4920060;29;20035;-72
2022/08/22 16:59:26;;;;;;;13.82;9.60;;;;;;;29.55;100.00;100281.19;4920944;29;20111;-73
2022/08/22 17:02:32;;;;;;;13.40;8.98;;;;;;;29.52;100.00;100291.44;4919577;29;20038;-73
2022/08/22 17:05:36;;;;;;;13.05;8.88;;;;;;;29.46;100.00;100290.25;4918896;29;20465;-73
2022/08/22 17:08:24;;;;;;;16.35;8.57;;;;;;;29.37;100.00;100290.31;4920895;29;20032;-73
2022/08/22 17:11:32;;;;;;;12.30;9.20;;;;;;;29.33;100.00;100283.53;4920558;29;20043;-72
2022/08/22 17:14:40;;;;;;;14.68;8.93;;;;;;;29.20;100.00;100286.63;4920459;29;20028;-72
2022/08/22 17:17:45;;;;;;;11.88;9.27;;;;;;;29.17;100.00;100292.31;4907330;29;20067;-73
2022/08/22 17:20:51;;;;;;;14.13;9.55;;;;;;;28.94;100.00;100299.19;4920232;29;20063;-73
2022/08/22 17:23:52;;;;;;;11.77;8.88;;;;;;;29.18;100.00;100307.53;4919442;29;20451;-72
2022/08/22 17:26:52;;;;;;;12.80;9.35;;;;;;;29.02;100.00;100320.00;4920018;29;20123;-73
2022/08/22 17:29:41;;;;;;;13.63;9.25;;;;;;;28.87;100.00;100325.06;4920197;29;20035;-73
2022/08/22 17:33:05;;;;;;;12.88;9.02;;;;;;;28.75;100.00;100325.41;4920860;29;20028;-72
2022/08/22 17:36:03;;;;;;;15.63;9.50;;;;;;;28.93;100.00;100332.53;4879574;29;20056;-72
2022/08/22 17:38:54;;;;;;;14.00;9.70;;;;;;;29.19;100.00;100336.22;4919873;29;20461;-73
2022/08/22 17:42:07;;;;;;;11.25;9.40;;;;;;;29.09;100.00;100324.63;4919388;29;20036;-73
2022/08/22 17:45:19;;;;;;;12.88;9.55;;;;;;;28.63;100.00;100327.47;4920138;29;20028;-73
2022/08/22 17:48:17;;;;;;;12.68;9.88;;;;;;;28.38;100.00;100332.69;4918599;29;20040;-72
2022/08/22 17:51:25;;;;;;;12.93;7.78;;;;;;;28.04;100.00;100339.63;4919753;29;20113;-73
2022/08/22 17:54:31;;;;;;;16.20;7.20;;;;;;;27.95;100.00;100338.66;4905193;29;20046;-72
2022/08/22 17:57:52;;;;;;;11.82;5.68;;;;;;;27.66;100.00;100339.69;4919040;29;20046;-72
2022/08/22 18:01:12;;;;;;;13.05;5.40;;;;;;;27.45;100.00;100334.47;4919134;29;20342;-75
2022/08/22 18:04:04;;;;;;;13.88;5.43;;;;;;;27.21;100.00;100352.88;4920046;29;20087;-74
2022/08/22 18:06:57;;;;;;;14.93;5.47;;;;;;;27.47;100.00;100353.19;4906691;29;20064;-73
2022/08/22 18:09:49;;;;;;;11.65;5.40;;;;;;;27.10;100.00;100358.34;4905988;29;20083;-73
2022/08/22 18:13:08;;;;;;;11.70;4.82;;;;;;;27.25;100.00;100368.59;4906434;29;20373;-72
2022/08/22 18:16:00;;;;;;;15.50;5.50;;;;;;;27.40;100.00;100366.31;4919640;29;20519;-73
2022/08/22 18:18:49;;;;;;;11.70;5.35;;;;;;;27.35;100.00;100368.59;4906415;29;20043;-72
2022/08/22 18:21:57;;;;;;;12.20;5.90;;;;;;;27.29;100.00;100371.88;4919740;29;20039;-73
2022/08/22 18:24:50;;;;;;;17.65;5.38;;;;;;;27.17;100.00;100376.47;4919008;29;20043;-74
2022/08/22 18:27:50;;;;;;;15.68;5.10;;;;;;;27.44;100.00;100381.19;4905988;29;20330;-75
2022/08/22 18:31:04;;;;;;;12.25;5.20;;;;;;;27.12;100.00;100400.28;4918171;29;20028;-73
2022/08/22 18:33:58;;;;;;;10.73;5.25;;;;;;;27.34;100.00;100396.50;4918338;29;20091;-72
2022/08/22 18:36:56;;;;;;;11.88;5.45;;;;;;;27.16;100.00;100398.13;4918161;29;20032;-75
2022/08/22 18:39:50;;;;;;;10.80;5.20;;;;;;;26.83;100.00;100403.88;4892724;29;20028;-74
2022/08/22 18:42:42;;;;;;;12.80;6.00;;;;;;;26.80;100.00;100402.31;4917410;29;20032;-72
2022/08/22 18:45:43;;;;;;;13.90;5.85;;;;;;;26.82;100.00;100408.41;4918982;29;20365;-73
2022/08/22 18:48:28;;;;;;;10.57;5.43;;;;;;;26.74;100.00;100418.16;4919580;29;20028;-73
2022/08/22 18:51:35;;;;;;;14.85;6.13;;;;;;;26.27;100.00;100424.09;4904779;29;20028;-73
2022/08/22 18:55:02;;;;;;;10.32;5.65;;;;;;;26.19;100.00;100427.47;4905279;29;20028;-74
2022/08/22 18:58:06;;;;;;;15.95;6.05;;;;;;;26.17;100.00;100426.78;4913140;29;20051;-73
2022/08/22 19:01:14;;;;;;;18.95;5.90;;;;;;;26.23;100.00;100436.09;4919690;29;20508;-73
2022/08/22 19:04:29;;;;;;;11.15;5.20;;;;;;;25.95;100.00;100434.09;4918575;29;20032;-73
2022/08/22 19:07:28;;;;;;;10.00;5.28;;;;;;;25.67;100.00;100445.41;4919291;29;20135;-72
2022/08/22 19:10:33;;;;;;;13.80;5.38;;;;;;;26.03;100.00;100440.50;4918742;29;20082;-74
2022/08/22 19:13:36;;;;;;;11.18;5.05;;;;;;;25.51;100.00;100445.03;4905549;29;20039;-73
2022/08/22 19:16:42;;;;;;;16.48;5.25;;;;;;;25.61;100.00;100449.50;4904681;29;20369;-73
2022/08/22 19:23:30;;;;;;;11.57;5.38;;;;;;;25.47;100.00;100470.41;4918820;29;20135;-73
2022/08/22 19:26:30;;;;;;;10.80;5.10;;;;;;;25.64;100.00;100469.84;4919757;29;20106;-73
2022/08/22 19:29:16;;;;;;;13.82;4.65;;;;;;;25.70;100.00;100459.44;4919488;29;20032;-73
2022/08/22 19:32:05;;;;;;;14.45;4.88;;;;;;;25.44;100.00;100460.75;4922313;29;20079;-73
2022/08/22 19:35:26;;;;;;;9.57;4.53;;;;;;;25.47;100.00;100457.00;4909193;29;20032;-73
2022/08/22 19:38:52;;;;;;;11.35;4.35;;;;;;;25.33;100.00;100438.47;4921300;29;20099;-73
2022/08/22 19:41:51;;;;;;;12.40;4.72;;;;;;;25.64;100.00;100441.16;4922904;29;20043;-73
2022/08/22 19:44:41;;;;;;;10.88;4.85;;;;;;;25.50;100.00;100445.97;4921801;29;20461;-73
2022/08/22 19:47:33;;;;;;;14.32;5.30;;;;;;;25.35;100.00;100441.91;4922920;29;20039;-74